Time;durP1;ratioP1;P1;durP2;ratioP2;P2;SDS_P1;SDS_P2;PMS_P1;PMS_P2;Temp;Humidity;BMP_temperature;BMP_pressure;BME280_temperature;BME280_humidity;BME280_pressure;Samples;Min_cycle;Max_cycle;Signal;HPM_P1;HPM_P2
2023/09/23 00:01:04;;;;;;;23.00;13.00;;;;;;;18.25;100.00;97967.86;137755;1272;22231;-82
2023/09/23 00:04:10;;;;;;;18.20;13.10;;;;;;;18.23;100.00;97972.34;137788;1272;22286;-81
2023/09/23 00:07:11;;;;;;;25.90;13.60;;;;;;;18.21;100.00;97977.16;137752;1272;22373;-81
2023/09/23 00:10:13;;;;;;;20.30;12.50;;;;;;;18.20;100.00;97978.77;137714;1272;22218;-81
2023/09/23 00:13:14;;;;;;;25.50;13.90;;;;;;;18.18;100.00;97981.45;137711;1272;22367;-81
2023/09/23 00:16:18;;;;;;;23.70;13.30;;;;;;;18.18;100.00;97980.92;137749;1272;22504;-81
2023/09/23 00:19:19;;;;;;;26.30;13.70;;;;;;;18.18;100.00;97982.69;137749;1272;22199;-82
2023/09/23 00:22:21;;;;;;;22.30;13.70;;;;;;;18.15;100.00;97987.35;137633;1272;22626;-82
2023/09/23 00:25:23;;;;;;;28.70;13.20;;;;;;;18.16;100.00;97983.45;137689;1272;22249;-83
2023/09/23 00:28:25;;;;;;;25.40;13.50;;;;;;;18.14;100.00;97976.80;137650;1272;22142;-81
2023/09/23 00:31:29;;;;;;;22.60;14.40;;;;;;;18.13;100.00;97976.16;137562;1272;22175;-82
2023/09/23 00:34:30;;;;;;;20.00;12.90;;;;;;;18.11;100.00;97975.33;137685;1272;22203;-82
2023/09/23 00:37:32;;;;;;;23.40;14.40;;;;;;;18.10;100.00;97973.78;137676;1272;22192;-81
2023/09/23 00:40:37;;;;;;;22.20;13.70;;;;;;;18.10;100.00;97976.77;137724;1272;22426;-82
2023/09/23 00:43:40;;;;;;;23.80;13.40;;;;;;;18.10;100.00;97978.34;137630;1272;23036;-81
2023/09/23 00:46:41;;;;;;;20.80;13.00;;;;;;;18.11;100.00;97978.34;137695;1272;22379;-81
2023/09/23 00:49:45;;;;;;;20.20;12.80;;;;;;;18.11;100.00;97981.67;137745;1272;22471;-82
2023/09/23 00:52:47;;;;;;;30.00;13.30;;;;;;;18.12;100.00;97983.58;137659;1272;22240;-80
2023/09/23 00:55:52;;;;;;;23.40;12.00;;;;;;;18.11;100.00;97983.42;137710;1272;22662;-81
2023/09/23 00:58:53;;;;;;;18.30;12.40;;;;;;;18.13;100.00;97979.33;137657;1272;22703;-81
2023/09/23 01:01:56;;;;;;;23.50;13.20;;;;;;;18.15;100.00;97981.02;137733;1272;22262;-82
2023/09/23 01:04:58;;;;;;;59.40;14.20;;;;;;;18.17;100.00;97983.77;137543;1272;22816;-82
2023/09/23 01:08:00;;;;;;;17.00;11.70;;;;;;;18.20;100.00;97983.34;137698;1272;22516;-81
2023/09/23 01:11:01;;;;;;;17.00;12.70;;;;;;;18.22;100.00;97982.23;137659;1272;22240;-82
2023/09/23 01:14:05;;;;;;;24.60;11.80;;;;;;;18.22;100.00;97984.15;137620;1272;22596;-82
2023/09/23 01:17:10;;;;;;;24.60;12.20;;;;;;;18.24;100.00;97987.10;137575;1272;22897;-80
2023/09/23 01:20:13;;;;;;;23.90;12.30;;;;;;;18.27;100.00;97990.35;137549;1272;22535;-81
2023/09/23 01:23:14;;;;;;;16.40;11.40;;;;;;;18.29;100.00;97993.99;137678;1265;22543;-81
2023/09/23 01:26:15;;;;;;;23.90;12.60;;;;;;;18.31;100.00;97999.73;137628;1272;23019;-82
2023/09/23 01:29:22;;;;;;;25.90;12.80;;;;;;;18.34;100.00;98011.06;137796;1272;22272;-80
2023/09/23 01:32:23;;;;;;;25.90;14.40;;;;;;;18.38;100.00;98044.77;137529;1272;22794;-80
2023/09/23 01:35:24;;;;;;;25.90;14.00;;;;;;;18.43;100.00;98046.90;137662;1272;22307;-81
2023/09/23 01:38:25;;;;;;;26.50;15.30;;;;;;;18.49;100.00;98043.36;137678;1272;22787;-81
2023/09/23 01:41:26;;;;;;;24.60;13.60;;;;;;;18.53;100.00;98044.09;137664;1272;22714;-81
2023/09/23 01:44:27;;;;;;;33.30;16.80;;;;;;;18.55;100.00;98050.75;137718;1272;22266;-81
2023/09/23 01:47:28;;;;;;;24.70;13.30;;;;;;;18.53;100.00;98061.38;137710;1272;22321;-82
2023/09/23 01:50:29;;;;;;;25.10;14.50;;;;;;;18.50;100.00;98062.17;137643;1272;22756;-81
2023/09/23 01:53:32;;;;;;;17.10;12.00;;;;;;;18.46;100.00;98064.39;137702;1272;22655;-81
2023/09/23 01:56:34;;;;;;;20.90;13.40;;;;;;;18.43;100.00;98061.85;137604;1269;22233;-82
2023/09/23 01:59:35;;;;;;;20.10;13.10;;;;;;;18.42;100.00;98068.59;137683;1272;22198;-82
2023/09/23 02:02:39;;;;;;;24.50;14.10;;;;;;;18.40;100.00;98058.27;137711;1272;22557;-81
2023/09/23 02:05:41;;;;;;;20.40;16.00;;;;;;;18.39;100.00;98060.91;137614;1272;22677;-81
2023/09/23 02:08:42;;;;;;;27.70;18.60;;;;;;;18.35;100.00;98069.67;137662;1266;22608;-81
2023/09/23 02:11:44;;;;;;;22.10;16.40;;;;;;;18.30;100.00;98076.35;137391;1272;22561;-82
2023/09/23 02:14:47;;;;;;;27.50;22.10;;;;;;;18.26;100.00;98087.08;137574;1272;22220;-81
2023/09/23 02:17:48;;;;;;;32.00;21.70;;;;;;;18.21;100.00;98091.78;137714;1272;22409;-81
2023/09/23 02:20:49;;;;;;;37.20;25.50;;;;;;;18.18;100.00;98088.70;137753;1272;22685;-81
2023/09/23 02:23:50;;;;;;;26.70;19.10;;;;;;;18.15;100.00;98079.09;137743;1266;22608;-82
2023/09/23 02:26:51;;;;;;;24.60;17.30;;;;;;;18.13;100.00;98073.88;137722;1267;22392;-80
2023/09/23 02:29:53;;;;;;;31.90;21.10;;;;;;;18.07;100.00;98076.89;137714;1272;22147;-82
2023/09/23 02:32:54;;;;;;;33.50;23.60;;;;;;;17.98;100.00;98080.51;137677;1272;22262;-80
2023/09/23 02:35:56;;;;;;;33.10;22.90;;;;;;;17.88;100.00;98087.46;137754;1272;22349;-82
2023/09/23 02:38:58;;;;;;;34.60;24.00;;;;;;;17.84;100.00;98085.67;137747;1267;22155;-81
2023/09/23 02:42:04;;;;;;;37.20;24.10;;;;;;;17.78;100.00;98095.86;137477;1272;22256;-81
2023/09/23 02:45:06;;;;;;;33.70;24.10;;;;;;;17.73;100.00;98103.40;137717;1272;22133;-81
2023/09/23 02:48:08;;;;;;;38.60;26.60;;;;;;;17.63;100.00;98108.42;137724;1272;22249;-81
2023/09/23 02:51:12;;;;;;;33.30;23.30;;;;;;;17.50;100.00;98115.09;137718;1272;22877;-82
2023/09/23 02:54:15;;;;;;;37.60;24.20;;;;;;;17.40;100.00;98128.39;137713;1272;22405;-82
2023/09/23 02:57:16;;;;;;;43.40;25.80;;;;;;;17.33;100.00;98138.93;137713;1272;22867;-82
2023/09/23 03:00:17;;;;;;;34.50;24.60;;;;;;;17.21;100.00;98140.47;137574;1272;22657;-80
2023/09/23 03:03:19;;;;;;;26.00;22.20;;;;;;;17.05;100.00;98142.82;137637;1272;22901;-81
2023/09/23 03:06:20;;;;;;;35.60;24.20;;;;;;;16.89;100.00;98142.16;137385;1272;22530;-82
2023/09/23 03:09:23;;;;;;;27.10;22.60;;;;;;;16.77;100.00;98140.35;137453;1272;22327;-81
2023/09/23 03:12:26;;;;;;;38.50;26.30;;;;;;;16.71;100.00;98127.33;137668;1272;22382;-82
2023/09/23 03:15:33;;;;;;;35.70;27.10;;;;;;;16.69;100.00;98128.95;137545;1272;22292;-82
2023/09/23 03:18:36;;;;;;;43.50;27.70;;;;;;;16.60;100.00;98134.58;137693;1272;22980;-83
2023/09/23 03:21:38;;;;;;;28.20;22.40;;;;;;;16.70;100.00;98153.33;137452;1272;22709;-82
2023/09/23 03:24:40;;;;;;;39.50;27.70;;;;;;;17.15;100.00;98161.55;137718;1272;22370;-82
2023/09/23 03:27:42;;;;;;;34.60;24.10;;;;;;;17.36;100.00;98152.56;137549;1272;22158;-83
2023/09/23 03:30:43;;;;;;;38.90;27.50;;;;;;;17.69;100.00;98168.09;137593;1272;22539;-82
2023/09/23 03:33:44;;;;;;;51.20;33.60;;;;;;;18.37;100.00;98177.77;137667;1272;22930;-83
2023/09/23 03:36:46;;;;;;;48.00;33.80;;;;;;;18.81;100.00;98179.80;137510;1272;22171;-83
2023/09/23 03:39:47;;;;;;;47.40;31.00;;;;;;;18.95;100.00;98190.27;137792;1272;22250;-82
2023/09/23 03:42:48;;;;;;;48.80;33.10;;;;;;;18.91;100.00;98194.80;137725;1272;22321;-83
2023/09/23 03:45:51;;;;;;;46.60;34.70;;;;;;;18.89;100.00;98203.88;137636;1272;22180;-82
2023/09/23 03:48:52;;;;;;;49.50;33.60;;;;;;;18.60;100.00;98208.63;137662;1272;22524;-82
2023/09/23 03:51:53;;;;;;;37.00;28.40;;;;;;;18.36;100.00;98213.73;137450;1272;22395;-81
2023/09/23 03:54:54;;;;;;;36.10;28.80;;;;;;;18.47;100.00;98223.10;137385;1272;22193;-82
2023/09/23 03:57:56;;;;;;;36.10;25.40;;;;;;;18.71;100.00;98223.81;137732;1272;22244;-82
2023/09/23 04:04:17;;;;;;;24.60;19.60;;;;;;;19.53;100.00;98235.86;137039;1272;22247;-82
2023/09/23 04:07:18;;;;;;;28.20;19.10;;;;;;;19.80;100.00;98234.06;137176;1272;22302;-81
2023/09/23 04:10:19;;;;;;;34.50;21.30;;;;;;;19.83;100.00;98231.12;137558;1272;22918;-81
2023/09/23 04:13:20;;;;;;;31.90;22.20;;;;;;;19.80;100.00;98227.36;137297;1272;22237;-82
2023/09/23 04:16:22;;;;;;;37.50;27.60;;;;;;;19.78;100.00;98236.25;137747;1272;22685;-80
2023/09/23 04:19:23;;;;;;;29.20;23.30;;;;;;;19.75;100.00;98257.87;137745;1272;22136;-81
2023/09/23 04:22:24;;;;;;;22.10;17.80;;;;;;;19.96;100.00;98276.61;137733;1272;22232;-82
2023/09/23 04:25:25;;;;;;;21.90;17.40;;;;;;;19.98;100.00;98290.48;137316;1272;22408;-82
2023/09/23 04:28:30;;;;;;;28.30;22.10;;;;;;;19.82;100.00;98303.56;137593;1272;22167;-79
2023/09/23 04:31:31;;;;;;;27.20;23.10;;;;;;;19.55;100.00;98305.31;137655;1272;22388;-82
2023/09/23 04:34:35;;;;;;;26.60;23.50;;;;;;;19.09;100.00;98304.65;137229;1272;22574;-81
2023/09/23 04:37:37;;;;;;;17.00;15.10;;;;;;;18.37;100.00;98298.08;137310;1267;22547;-81
2023/09/23 04:40:39;;;;;;;16.90;13.80;;;;;;;17.60;100.00;98288.84;137599;1272;22273;-81
2023/09/23 04:43:42;;;;;;;16.80;13.60;;;;;;;17.12;100.00;98285.20;137260;1272;22303;-82
2023/09/23 04:46:45;;;;;;;19.10;16.30;;;;;;;16.83;100.00;98274.09;137256;1272;22266;-81
2023/09/23 04:49:46;;;;;;;18.10;15.60;;;;;;;16.57;100.00;98266.90;137524;1272;22982;-80
2023/09/23 04:52:48;;;;;;;17.30;14.00;;;;;;;16.38;100.00;98260.42;137204;1272;22380;-81
2023/09/23 04:55:49;;;;;;;20.20;13.60;;;;;;;16.28;100.00;98264.48;137425;1272;24129;-81
2023/09/23 04:58:50;;;;;;;21.60;15.60;;;;;;;16.22;100.00;98270.05;137476;1272;22565;-85
2023/09/23 05:01:51;;;;;;;17.60;15.00;;;;;;;16.27;100.00;98265.02;137598;1266;22218;-83
2023/09/23 05:04:53;;;;;;;17.50;15.60;;;;;;;16.31;100.00;98261.98;137468;1272;22189;-83
2023/09/23 05:07:55;;;;;;;19.80;15.50;;;;;;;16.34;100.00;98268.23;137787;1272;22124;-82
2023/09/23 05:10:56;;;;;;;18.60;16.30;;;;;;;16.22;100.00;98258.45;137800;1272;22204;-82
2023/09/23 05:13:57;;;;;;;17.00;14.30;;;;;;;16.35;100.00;98260.66;137823;1272;22238;-81
2023/09/23 05:16:59;;;;;;;18.30;16.20;;;;;;;16.89;100.00;98262.88;137810;1272;22099;-82
2023/09/23 05:20:00;;;;;;;15.80;14.20;;;;;;;16.74;100.00;98264.81;137773;1272;22226;-81
2023/09/23 05:23:05;;;;;;;16.90;14.50;;;;;;;16.85;100.00;98275.80;137758;1272;22682;-82
2023/09/23 05:26:07;;;;;;;31.40;15.40;;;;;;;17.17;100.00;98284.02;137645;1272;22618;-80
2023/09/23 05:29:09;;;;;;;22.10;14.50;;;;;;;17.12;100.00;98296.46;137764;1272;22221;-82
2023/09/23 05:32:10;;;;;;;23.00;15.30;;;;;;;16.77;100.00;98306.91;137710;1267;22173;-80
2023/09/23 05:35:12;;;;;;;23.40;15.30;;;;;;;16.65;100.00;98311.89;137717;1272;22307;-82
2023/09/23 05:38:13;;;;;;;21.40;15.20;;;;;;;16.49;100.00;98319.73;137726;1272;22230;-81
2023/09/23 05:41:15;;;;;;;14.80;13.10;;;;;;;16.27;100.00;98324.73;137690;1272;22382;-82
2023/09/23 05:44:17;;;;;;;19.60;12.70;;;;;;;16.20;100.00;98334.34;137712;1272;22916;-82
2023/09/23 05:47:18;;;;;;;21.50;13.60;;;;;;;16.21;100.00;98341.16;137688;1272;22252;-82
2023/09/23 05:50:20;;;;;;;17.00;12.90;;;;;;;16.31;100.00;98352.57;137416;1272;22323;-83
2023/09/23 05:53:21;;;;;;;19.40;13.60;;;;;;;16.40;100.00;98350.63;137508;1272;22237;-81
2023/09/23 05:56:22;;;;;;;21.20;13.00;;;;;;;16.23;100.00;98344.83;137749;1272;22345;-80
2023/09/23 05:59:25;;;;;;;18.60;13.10;;;;;;;16.00;100.00;98344.37;137711;1272;22757;-78
2023/09/23 06:02:26;;;;;;;21.20;14.40;;;;;;;15.91;100.00;98343.81;137696;1272;22306;-79
2023/09/23 06:05:27;;;;;;;19.50;13.30;;;;;;;15.85;100.00;98350.60;137735;1272;22128;-78
2023/09/23 06:08:28;;;;;;;17.40;13.20;;;;;;;15.83;100.00;98354.31;137549;1272;22392;-79
2023/09/23 06:11:30;;;;;;;17.80;13.40;;;;;;;15.88;100.00;98363.52;137747;1272;22290;-78
2023/09/23 06:14:31;;;;;;;17.70;12.80;;;;;;;15.91;100.00;98365.40;137661;1272;22076;-79
2023/09/23 06:17:32;;;;;;;17.50;13.50;;;;;;;15.90;100.00;98375.60;137698;1272;22316;-80
2023/09/23 06:20:33;;;;;;;18.60;12.00;;;;;;;15.92;100.00;98371.70;137529;1272;22983;-79
2023/09/23 06:23:35;;;;;;;17.10;11.80;;;;;;;16.02;100.00;98367.48;137708;1272;22318;-80
2023/09/23 06:26:36;;;;;;;17.30;11.10;;;;;;;16.09;100.00;98366.85;137762;1272;22223;-78
2023/09/23 06:29:37;;;;;;;17.40;10.70;;;;;;;16.12;100.00;98358.00;137726;1272;22201;-80
2023/09/23 06:32:38;;;;;;;16.90;11.60;;;;;;;16.17;100.00;98370.40;137023;1272;22714;-78
2023/09/23 06:35:39;;;;;;;11.50;10.40;;;;;;;16.14;100.00;98376.92;137610;1272;22492;-79
2023/09/23 06:38:40;;;;;;;10.60;9.60;;;;;;;16.18;100.00;98383.35;137747;1267;22922;-80
2023/09/23 06:41:41;;;;;;;13.10;8.80;;;;;;;16.21;100.00;98388.20;137710;1272;22275;-80
2023/09/23 06:44:43;;;;;;;10.10;7.80;;;;;;;16.30;100.00;98393.84;137679;1272;22533;-80
2023/09/23 06:47:44;;;;;;;9.50;8.00;;;;;;;16.35;100.00;98393.58;137288;1256;22421;-81
2023/09/23 06:50:45;;;;;;;10.70;9.70;;;;;;;16.39;100.00;98392.45;137225;1272;22347;-79
2023/09/23 06:53:47;;;;;;;11.70;10.60;;;;;;;16.28;100.00;98393.88;137373;1272;22601;-78
2023/09/23 06:56:48;;;;;;;12.90;11.60;;;;;;;16.19;100.00;98389.84;137474;1272;22889;-79
2023/09/23 06:59:50;;;;;;;11.00;9.90;;;;;;;16.09;100.00;98396.50;137277;1272;22391;-80
2023/09/23 07:02:51;;;;;;;14.90;13.40;;;;;;;16.05;100.00;98401.66;137301;1272;22648;-80
2023/09/23 07:05:52;;;;;;;15.70;14.10;;;;;;;16.00;100.00;98408.07;137713;1272;22421;-80
2023/09/23 07:08:53;;;;;;;17.10;15.40;;;;;;;15.96;100.00;98409.72;137102;1272;22695;-80
2023/09/23 07:11:54;;;;;;;20.90;15.90;;;;;;;15.89;100.00;98413.69;137213;1272;23177;-80
2023/09/23 07:14:55;;;;;;;21.10;16.40;;;;;;;15.82;100.00;98426.27;137762;1272;22768;-79
2023/09/23 07:17:57;;;;;;;18.00;16.10;;;;;;;15.74;100.00;98433.93;137590;1272;22630;-79
2023/09/23 07:20:58;;;;;;;25.60;15.40;;;;;;;15.69;100.00;98434.71;137116;1272;22890;-78
2023/09/23 07:23:59;;;;;;;16.80;14.50;;;;;;;15.69;100.00;98432.79;137708;1272;22324;-77
2023/09/23 07:27:00;;;;;;;18.30;15.10;;;;;;;15.71;100.00;98441.35;137492;1272;22283;-77
2023/09/23 07:30:01;;;;;;;15.20;13.70;;;;;;;15.70;100.00;98456.44;137169;1272;22194;-79
2023/09/23 07:33:03;;;;;;;15.70;14.20;;;;;;;15.66;100.00;98473.52;137378;1272;22544;-81
2023/09/23 07:36:04;;;;;;;17.70;14.50;;;;;;;15.65;100.00;98482.31;137496;1272;22350;-80
2023/09/23 07:39:05;;;;;;;15.60;14.10;;;;;;;15.64;100.00;98476.89;137299;1272;22246;-81
2023/09/23 07:42:06;;;;;;;16.30;14.40;;;;;;;15.64;100.00;98474.60;137209;1272;22572;-80
2023/09/23 07:45:08;;;;;;;17.20;15.40;;;;;;;15.64;100.00;98482.67;137539;1272;22263;-79
2023/09/23 07:48:09;;;;;;;16.70;14.50;;;;;;;15.60;100.00;98483.41;137070;1272;22279;-79
2023/09/23 07:51:12;;;;;;;14.40;13.10;;;;;;;15.59;100.00;98488.33;137095;1272;22556;-80
2023/09/23 07:54:13;;;;;;;16.60;12.80;;;;;;;15.55;100.00;98493.25;137652;1272;22255;-81
2023/09/23 07:57:14;;;;;;;14.40;12.10;;;;;;;15.50;100.00;98496.98;137383;1272;22278;-81
2023/09/23 08:00:17;;;;;;;12.60;9.90;;;;;;;15.49;100.00;98490.89;137251;1272;22549;-82
2023/09/23 08:03:18;;;;;;;10.90;8.60;;;;;;;15.47;100.00;98489.33;137762;1271;22656;-80
2023/09/23 08:06:20;;;;;;;11.10;9.10;;;;;;;15.45;100.00;98500.39;137008;1272;22471;-84
2023/09/23 08:09:21;;;;;;;12.50;8.40;;;;;;;15.45;100.00;98503.21;137037;1272;22224;-82
2023/09/23 08:12:22;;;;;;;10.00;7.70;;;;;;;15.45;100.00;98506.89;137720;1272;22146;-81
2023/09/23 08:15:23;;;;;;;9.50;7.10;;;;;;;15.44;100.00;98509.70;137235;1266;22204;-82
2023/09/23 08:18:28;;;;;;;8.30;6.10;;;;;;;15.43;100.00;98514.10;136964;1272;22262;-82
2023/09/23 08:21:29;;;;;;;7.50;5.20;;;;;;;15.45;100.00;98515.48;137475;1266;22560;-81
2023/09/23 08:24:31;;;;;;;9.40;4.90;;;;;;;15.53;100.00;98524.50;137381;1272;22252;-82
2023/09/23 08:27:32;;;;;;;8.10;4.90;;;;;;;15.60;100.00;98530.05;137168;1270;22449;-81
2023/09/23 08:30:33;;;;;;;6.30;4.70;;;;;;;15.66;100.00;98531.92;137387;1272;22556;-82
2023/09/23 08:33:35;;;;;;;9.60;5.50;;;;;;;15.74;100.00;98536.20;137367;1272;22407;-82
2023/09/23 08:36:36;;;;;;;9.00;6.10;;;;;;;15.86;100.00;98536.20;137128;1272;22240;-82
2023/09/23 08:39:38;;;;;;;6.60;5.90;;;;;;;16.01;100.00;98534.95;137049;1272;23282;-80
2023/09/23 08:42:39;;;;;;;6.40;5.80;;;;;;;16.23;100.00;98536.18;137589;1268;22221;-83
2023/09/23 08:45:40;;;;;;;14.10;8.20;;;;;;;16.39;100.00;98540.66;137373;1272;22292;-83
2023/09/23 08:48:41;;;;;;;9.00;7.80;;;;;;;16.41;100.00;98547.48;137300;1272;25041;-82
2023/09/23 08:51:43;;;;;;;11.10;8.70;;;;;;;16.52;100.00;98541.70;137618;1272;22290;-84
2023/09/23 08:54:44;;;;;;;9.60;8.60;;;;;;;16.69;100.00;98538.64;137152;1272;22250;-81
2023/09/23 08:57:45;;;;;;;13.00;9.80;;;;;;;16.84;100.00;98533.98;137310;1251;22593;-81
2023/09/23 09:00:46;;;;;;;13.60;11.00;;;;;;;17.00;100.00;98530.86;137686;1272;22273;-81
2023/09/23 09:03:48;;;;;;;15.10;12.10;;;;;;;17.03;100.00;98540.84;137067;1272;22418;-79
2023/09/23 09:06:49;;;;;;;17.50;12.30;;;;;;;17.09;100.00;98551.25;137119;1272;22301;-83
2023/09/23 09:09:50;;;;;;;15.10;11.80;;;;;;;17.18;100.00;98553.90;137728;1272;22191;-82
2023/09/23 09:12:51;;;;;;;14.40;12.50;;;;;;;17.20;100.00;98564.05;137221;1266;22278;-81
2023/09/23 09:15:52;;;;;;;13.00;11.70;;;;;;;17.22;100.00;98566.67;137024;1272;22425;-81
2023/09/23 09:18:54;;;;;;;13.10;11.80;;;;;;;17.17;100.00;98575.00;137714;1272;22336;-79
2023/09/23 09:21:55;;;;;;;13.20;11.70;;;;;;;17.03;100.00;98573.34;137691;1272;22184;-79
2023/09/23 09:24:56;;;;;;;14.80;12.70;;;;;;;16.86;100.00;98569.61;137212;1272;23325;-82
2023/09/23 09:27:57;;;;;;;13.20;11.90;;;;;;;16.69;100.00;98566.73;137583;1272;22538;-81
2023/09/23 09:31:01;;;;;;;13.70;12.50;;;;;;;16.59;100.00;98574.97;137279;1272;22250;-80
2023/09/23 09:34:02;;;;;;;14.30;12.90;;;;;;;16.49;100.00;98573.54;137139;1272;22218;-81
2023/09/23 09:37:03;;;;;;;15.70;14.30;;;;;;;16.44;100.00;98570.27;136934;1272;22687;-80
2023/09/23 09:40:09;;;;;;;13.90;12.80;;;;;;;16.45;100.00;98570.77;137502;1272;22392;-82
2023/09/23 09:43:10;;;;;;;14.90;13.60;;;;;;;16.56;100.00;98574.84;136811;1272;196825;-82
2023/09/23 09:46:11;;;;;;;15.80;14.50;;;;;;;16.66;100.00;98572.95;137090;1272;22545;-80
2023/09/23 09:49:16;;;;;;;17.10;15.30;;;;;;;16.68;100.00;98568.52;137656;1272;22205;-81
2023/09/23 09:52:17;;;;;;;16.00;14.40;;;;;;;16.63;100.00;98567.89;137199;1272;22198;-80
2023/09/23 09:55:18;;;;;;;15.50;14.10;;;;;;;16.57;100.00;98569.73;136975;1272;24047;-80
2023/09/23 09:58:22;;;;;;;14.90;13.50;;;;;;;16.50;100.00;98582.30;137736;1272;22242;-80
2023/09/23 10:01:23;;;;;;;16.50;14.80;;;;;;;16.39;100.00;98591.23;137128;1272;22250;-82
2023/09/23 10:04:26;;;;;;;16.50;14.70;;;;;;;16.32;100.00;98590.99;137028;1260;22554;-80
2023/09/23 10:07:27;;;;;;;16.80;15.10;;;;;;;16.30;100.00;98589.45;137316;1272;22588;-77
2023/09/23 10:10:31;;;;;;;16.20;14.80;;;;;;;16.33;100.00;98585.89;137161;1260;22299;-80
2023/09/23 10:13:32;;;;;;;17.00;15.50;;;;;;;16.43;100.00;98580.30;136874;1272;22317;-80
2023/09/23 10:16:34;;;;;;;17.90;15.70;;;;;;;16.46;100.00;98578.84;137235;1272;22520;-79
2023/09/23 10:19:35;;;;;;;16.40;14.90;;;;;;;16.41;100.00;98587.86;137297;1272;22202;-80
2023/09/23 10:22:36;;;;;;;16.50;15.00;;;;;;;16.35;100.00;98591.65;136977;1272;22219;-81
2023/09/23 10:25:38;;;;;;;16.40;15.10;;;;;;;16.36;100.00;98588.12;137003;1272;22532;-78
2023/09/23 10:28:39;;;;;;;16.80;15.40;;;;;;;16.33;100.00;98591.86;137549;1272;22232;-79
2023/09/23 10:31:42;;;;;;;16.20;14.90;;;;;;;16.41;100.00;98583.48;137692;1272;22185;-81
2023/09/23 10:34:43;;;;;;;15.80;14.50;;;;;;;16.54;100.00;98573.11;137783;1272;23040;-83
2023/09/23 10:37:45;;;;;;;15.70;14.10;;;;;;;16.68;100.00;98571.86;137714;1272;22245;-84
2023/09/23 10:40:46;;;;;;;12.90;11.80;;;;;;;16.77;100.00;98573.46;136805;1272;22683;-81
2023/09/23 10:43:47;;;;;;;11.80;10.90;;;;;;;16.82;100.00;98575.13;137140;1272;22508;-83
2023/09/23 10:46:48;;;;;;;12.50;11.50;;;;;;;16.85;100.00;98580.16;137698;1272;22075;-82
2023/09/23 10:49:49;;;;;;;13.60;12.50;;;;;;;16.89;100.00;98583.09;137337;1272;22183;-82
2023/09/23 10:52:52;;;;;;;13.30;12.20;;;;;;;16.85;100.00;98586.49;137205;1272;22561;-81
2023/09/23 10:55:53;;;;;;;14.20;12.80;;;;;;;16.78;100.00;98583.82;137757;1272;22323;-81
2023/09/23 10:58:55;;;;;;;13.00;11.90;;;;;;;16.77;100.00;98586.30;137276;1272;22253;-82
2023/09/23 11:01:56;;;;;;;10.40;9.40;;;;;;;16.86;100.00;98588.77;137033;1272;22216;-82
2023/09/23 11:04:57;;;;;;;8.30;7.60;;;;;;;17.00;100.00;98586.77;137327;1272;22917;-81
2023/09/23 11:08:01;;;;;;;7.70;6.90;;;;;;;17.14;100.00;98585.80;137300;1272;22482;-82
2023/09/23 11:11:02;;;;;;;7.20;6.70;;;;;;;17.26;100.00;98590.69;137260;1272;22466;-83
2023/09/23 11:14:03;;;;;;;6.90;6.30;;;;;;;17.36;100.00;98584.88;137696;1272;22080;-83
2023/09/23 11:17:04;;;;;;;6.30;5.80;;;;;;;17.47;100.00;98585.00;137275;1269;22549;-83
2023/09/23 11:20:10;;;;;;;5.90;5.00;;;;;;;17.54;100.00;98586.12;137133;1272;22214;-83
2023/09/23 11:23:11;;;;;;;5.30;4.90;;;;;;;17.59;100.00;98597.09;137314;1267;22572;-82
2023/09/23 11:26:13;;;;;;;5.40;5.00;;;;;;;17.63;100.00;98606.51;137440;1272;22264;-81
2023/09/23 11:29:15;;;;;;;9.10;4.70;;;;;;;17.56;100.00;98606.65;136846;1272;22398;-83
2023/09/23 11:32:16;;;;;;;4.90;4.60;;;;;;;17.49;100.00;98611.55;137256;1272;22537;-82
2023/09/23 11:35:17;;;;;;;5.50;5.00;;;;;;;17.47;100.00;98612.65;137689;1272;22256;-82
2023/09/23 11:38:20;;;;;;;5.70;5.10;;;;;;;17.41;100.00;98621.55;137268;1272;22218;-83
2023/09/23 11:41:21;;;;;;;5.40;5.00;;;;;;;17.30;100.00;98621.91;137250;1272;26018;-83
2023/09/23 11:44:22;;;;;;;5.70;5.20;;;;;;;17.23;100.00;98625.73;137439;1272;22501;-82
2023/09/23 11:47:24;;;;;;;5.80;5.40;;;;;;;17.13;100.00;98623.79;137160;1269;22316;-83
2023/09/23 11:50:25;;;;;;;8.10;5.60;;;;;;;17.01;100.00;98624.02;137172;1272;22585;-83
2023/09/23 11:53:26;;;;;;;7.10;6.40;;;;;;;16.99;100.00;98624.73;137547;1272;22513;-81
2023/09/23 11:56:27;;;;;;;6.80;6.20;;;;;;;17.03;100.00;98637.88;136969;1272;22187;-83
2023/09/23 11:59:29;;;;;;;6.80;6.30;;;;;;;16.96;100.00;98644.84;137271;1272;22313;-83
2023/09/23 12:02:30;;;;;;;6.70;5.90;;;;;;;16.94;100.00;98642.60;137545;1272;22528;-82
2023/09/23 12:05:32;;;;;;;6.70;6.20;;;;;;;16.93;100.00;98646.11;137173;1272;22466;-83
2023/09/23 12:08:33;;;;;;;6.60;6.10;;;;;;;16.91;100.00;98644.75;137014;1272;22549;-81
2023/09/23 12:11:34;;;;;;;7.40;6.80;;;;;;;16.83;100.00;98628.35;137625;1272;22575;-82
2023/09/23 12:14:36;;;;;;;7.20;6.70;;;;;;;16.79;100.00;98624.38;137183;1272;22241;-84
2023/09/23 12:17:37;;;;;;;7.20;6.60;;;;;;;16.65;100.00;98617.05;137327;1268;22434;-84
2023/09/23 12:20:38;;;;;;;7.80;7.20;;;;;;;16.45;100.00;98600.81;137602;1272;22647;-84
2023/09/23 12:23:40;;;;;;;8.50;7.90;;;;;;;16.35;100.00;98587.63;137375;1272;22697;-84
2023/09/23 12:26:41;;;;;;;8.30;7.50;;;;;;;16.25;100.00;98590.92;137284;1272;22277;-83
2023/09/23 12:29:43;;;;;;;8.40;7.70;;;;;;;16.19;100.00;98600.14;137539;1272;23269;-82
2023/09/23 12:32:44;;;;;;;9.30;8.50;;;;;;;16.14;100.00;98607.06;137520;1272;22397;-84
2023/09/23 12:35:45;;;;;;;10.30;9.10;;;;;;;16.11;100.00;98606.59;137320;1272;22312;-84
2023/09/23 12:38:47;;;;;;;9.90;9.00;;;;;;;16.10;100.00;98611.34;137483;1272;22538;-84
2023/09/23 12:41:48;;;;;;;7.90;7.20;;;;;;;16.14;100.00;98611.27;137505;1272;22243;-83
2023/09/23 12:44:49;;;;;;;6.80;6.20;;;;;;;16.13;100.00;98609.89;137049;1272;22262;-83
2023/09/23 12:47:50;;;;;;;8.70;7.90;;;;;;;16.07;100.00;98618.92;137483;1272;22520;-83
2023/09/23 12:50:51;;;;;;;8.10;7.40;;;;;;;16.01;100.00;98630.05;137404;1269;22718;-84
2023/09/23 12:53:52;;;;;;;8.50;7.00;;;;;;;15.95;100.00;98633.13;137201;1272;22392;-83
2023/09/23 12:56:55;;;;;;;7.00;6.20;;;;;;;15.90;100.00;98633.02;137502;1272;22547;-83
2023/09/23 12:59:56;;;;;;;7.30;6.60;;;;;;;15.91;100.00;98637.92;137105;1272;22234;-83
2023/09/23 13:03:00;;;;;;;7.10;6.50;;;;;;;15.89;100.00;98639.34;136940;1272;22536;-83
2023/09/23 13:06:01;;;;;;;;;;;;;;;15.84;100.00;98645.02;137259;1272;22514;-83
2023/09/23 13:09:03;;;;;;;7.00;6.00;;;;;;;15.70;100.00;98639.23;137374;1272;23116;-84
2023/09/23 13:12:07;;;;;;;7.20;6.00;;;;;;;15.59;100.00;98646.17;136925;1272;22972;-83
2023/09/23 13:15:08;;;;;;;5.60;5.10;;;;;;;15.50;100.00;98647.29;137192;1272;22573;-83
2023/09/23 13:18:09;;;;;;;7.00;6.30;;;;;;;15.42;100.00;98645.98;137559;1272;22597;-84
2023/09/23 13:21:10;;;;;;;7.70;6.90;;;;;;;15.35;100.00;98646.39;137158;1272;22242;-85
2023/09/23 13:24:11;;;;;;;5.30;4.80;;;;;;;15.34;100.00;98650.79;137142;1272;22220;-84
2023/09/23 13:27:13;;;;;;;6.20;5.60;;;;;;;15.30;100.00;98655.56;137582;1272;22557;-85
2023/09/23 13:30:14;;;;;;;6.10;5.50;;;;;;;15.29;100.00;98656.10;136998;1272;25470;-84
2023/09/23 13:33:16;;;;;;;6.00;5.40;;;;;;;15.30;100.00;98659.94;137086;1272;24800;-84
2023/09/23 13:36:17;;;;;;;6.90;5.30;;;;;;;15.27;100.00;98663.83;137687;1272;22260;-85
2023/09/23 13:39:18;;;;;;;5.60;5.10;;;;;;;15.26;100.00;98669.63;137157;1272;22342;-84
2023/09/23 13:42:20;;;;;;;5.50;5.00;;;;;;;15.24;100.00;98679.28;137182;1272;23187;-84
2023/09/23 13:45:21;;;;;;;5.50;5.00;;;;;;;15.20;100.00;98687.57;137312;1272;22577;-83